This is the latest recevied weather packets stored in our database for station/object F4THN-13. If no packets are shown the sender has not sent any weather packets the latest 1 day(s).
| Time | Temp. | Humidity | Pressure | Rain* | Wind** | Luminosity | Snow |
|---|---|---|---|---|---|---|---|
| 1836274823 | 18.89° C | 63% | 1021.2 hPa | 0 mm | 0 m/s | - | - |
| 1778026472 | 12.22° C | 84% | 1009.9 hPa | 0 mm | 0 m/s | - | - |
| 1778024971 | 12.22° C | 83% | 1010.1 hPa | 0 mm | 0 m/s | - | - |
| 1778023471 | 12.22° C | 83% | 1010.2 hPa | 0 mm | 0 m/s | - | - |
| 1778021971 | 12.78° C | 83% | 1010.6 hPa | 0.51 mm | 0 m/s | - | - |
| 1778020471 | 12.22° C | 82% | 1010.4 hPa | 1.02 mm | 0 m/s | - | - |
| 1778018971 | 12.78° C | 82% | 1010.7 hPa | 1.02 mm | 0 m/s | - | - |
| 1778017470 | 12.78° C | 81% | 1011.3 hPa | 1.02 mm | 0 m/s | - | - |
| 1778015970 | 13.33° C | 80% | 1011.6 hPa | 1.52 mm | 0 m/s | - | - |
| 1778014470 | 13.33° C | 80% | 1011.6 hPa | 2.54 mm | 2.24 m/s, 158° | - | - |
| 1778012970 | 14.44° C | 77% | 1010.5 hPa | 2.03 mm | 0 m/s | - | - |
| 1778011470 | 14.44° C | 76% | 1010.7 hPa | 0.51 mm | 0 m/s | - | - |
| 1778009970 | 15° C | 77% | 1010.1 hPa | 0 mm | 0 m/s | - | - |
| 1778008470 | 15° C | 76% | 1009.3 hPa | 0 mm | 0 m/s | - | - |
| 1778006969 | 15.56° C | 74% | 1009.1 hPa | 0 mm | 0 m/s | - | - |
| 1778005469 | 16.11° C | 72% | 1008.7 hPa | 0 mm | 0 m/s | - | - |
| 1778003969 | 17.22° C | 72% | 1008.8 hPa | 0 mm | 0 m/s | - | - |
| 1778002469 | 17.22° C | 72% | 1008.8 hPa | 0 mm | 0 m/s | - | - |
| 1778000939 | 17.22° C | 71% | 1009 hPa | 0 mm | 0 m/s | - | - |
| 1777999387 | 17.22° C | 71% | 1009.1 hPa | 0 mm | 0 m/s | - | - |
| 1777997887 | 17.78° C | 70% | 1009.3 hPa | 0 mm | 0 m/s | - | - |
| 1777996387 | 18.33° C | 69% | 1009.7 hPa | 0 mm | 2.24 m/s, 203° | - | - |
| 1777994887 | 18.89° C | 70% | 1009.7 hPa | 0 mm | 2.68 m/s, 225° | - | - |
| 1777993387 | 18.33° C | 72% | 1009.7 hPa | 0 mm | 2.24 m/s, 225° | - | - |
| 1777991886 | 18.89° C | 70% | 1009.5 hPa | 0 mm | 0 m/s | - | - |
* Rain latest hour (hover to see other rain measurements)
** Current wind speed in m/s (hover to see current wind gust speed)